AirNav   Pilot Hours Calculator
 
 692 users online  

73CL Julian Hinds Pump Plant Airstrip
Desert Center, California, USA

GOING TO DESERT CENTER?


FAA INFORMATION EFFECTIVE 03 NOVEMBER 2022

Location

FAA Identifier: 73CL
Lat/Long: 33-41-56.0670N 115-38-12.9580W
33-41.934450N 115-38.215967W
33.6989075,-115.6369328
(estimated)
Elevation: 1335 ft. / 406.9 m (surveyed)
Variation: 13E (1985)
From city: 12 miles W of DESERT CENTER, CA
Time zone: UTC -8 (UTC -7 during Daylight Saving Time)
Zip code: 92257

Airport Operations

Airport use: Private use. Permission required prior to landing
Activation date: 05/1976
Control tower: no
ARTCC: LOS ANGELES CENTER
FSS: RIVERSIDE FLIGHT SERVICE STATION
Attendance: UNATNDD
Wind indicator: yes
Segmented circle: no

Nearby radio navigation aids

VOR radial/distance  VOR name  Freq  Var
TNPr150/25.7TWENTYNINE PALMS VORTAC114.2015E
TRMr068/26.5THERMAL VORTAC116.2013E

Airport Services

Runway Information

Runway 4/22

Dimensions: 2000 x 30 ft. / 610 x 9 m
Surface: asphalt
RUNWAY 4  RUNWAY 22
Traffic pattern: leftleft

Airport Ownership and Management from official FAA records

Ownership: Privately-owned
Owner: THE METRO WATER DIST OF S CA
158000 MWD RD
PARKER DAM, CA 92267
Phone (442) 262-2500
Manager: JOSEPH MIZIA
158000 MWD RD
PARKER DAM, CA 92267
Phone (442) 262-2531

Additional Remarks

FOR CD CTC LOS ANGELES ARTCC AT 661-575-2079.

Instrument Procedures

There are no published instrument procedures at 73CL.

Some nearby airports with instrument procedures:

KTRM - Jacqueline Cochran Regional Airport (26 nm W)
KTNP - Twentynine Palms Airport (30 nm NW)
KUDD - Bermuda Dunes Airport (32 nm W)
KCLR - Cliff Hatfield Memorial Airport (35 nm S)
KBWC - Brawley Municipal Airport (43 nm S)
 
Loc | Ops | Rwys | IFR | FBO | Links
Com | Nav | Svcs | Stats | Notes
Area around 73CL (Julian Hinds Pump Plant Airstrip)
 
Road maps at: MapQuest Bing Google
 
Aerial photo
No photo
 
Sectional chart

 
Airport distance calculator
Flying to Julian Hinds Pump Plant Airstrip? Find the distance to fly.

From to 73CL

Sunrise and sunset
Times for 28-Nov-2022
 Local
(UTC-8)
 Zulu
(UTC)
Morning civil twilight06:0014:00
Sunrise06:2814:28
Sunset16:3400:34
Evening civil twilight17:0101:01

Current date and time
Zulu (UTC)  28-Nov-2022 12:38:15
Local (UTC-8)  28-Nov-2022 04:38:15
 
METAR
KTRM 
27nm W 
281152Z AUTO 00000KT 10SM CLR 06/01 A2989 RMK AO2 SLP120 T00610006 10117 20056 56014 $
KL08 
43nm SW 
281215Z AUTO 03005KT 10SM CLR 07/M05 A2989 RMK AO2
KPSP 
44nm W 
281153Z AUTO 00000KT 10SM CLR 12/01 A2990 RMK AO2 SLP126 T01220011 10144 20117 56014
KNXP 
44nm NW 
281156Z AUTO 00000KT CLR 07/M04 A2996 RMK AO2 SLP126 T00721044 10106 20061 56012 $
KBLH 
46nm E 
281152Z AUTO 19003KT 10SM CLR 08/M03 A2990 RMK AO2 SLP123 T00781033 10111 20078 58012 TSNO $
TAF
KTRM 
27nm W 
281133Z 2812/2912 VRB05KT P6SM BKN200 FM282300 27008KT P6SM SCT200 FM290200 32012KT P6SM SCT200
NOTAMs
Click for the latest NOTAMs
NOTAMs are issued by the DoD/FAA and will open in a separate window not controlled by AirNav.

 

 
 

Would you like to see your business listed on this page?

 If your business provides an interesting product or service to pilots, flight crews, aircraft, or users of the Julian Hinds Pump Plant Airstrip, you should consider listing it here.  To start the listing process, click on the button below
 
Add a business
 

Other Pages about Julian Hinds Pump Plant Airstrip

Update a link
 
Copyright © AirNav, LLC. All rights reserved. Privacy Policy  Contact